Time;durP1;ratioP1;P1;durP2;ratioP2;P2;SDS_P1;SDS_P2;PMS_P1;PMS_P2;Temp;Humidity;BMP_temperature;BMP_pressure;BME280_temperature;BME280_humidity;BME280_pressure;Samples;Min_cycle;Max_cycle;Signal;HPM_P1;HPM_P2
2022/01/11 00:01:25;;;;;;;15.10;6.82;;;;;;;;;;4973153;28;20023;-75
2022/01/11 00:03:52;;;;;;;14.93;7.20;;;;;;;;;;4973089;28;20054;-74
2022/01/11 00:08:45;;;;;;;19.23;7.72;;;;;;;;;;4954038;28;20039;-74
2022/01/11 00:11:10;;;;;;;14.25;6.55;;;;;;;;;;4953614;29;20555;-74
2022/01/11 00:13:38;;;;;;;15.00;7.38;;;;;;;;;;4953423;28;20027;-75
2022/01/11 00:16:05;;;;;;;13.73;6.60;;;;;;;;;;4953399;28;20413;-75
2022/01/11 00:18:30;;;;;;;15.35;7.07;;;;;;;;;;4953434;28;20090;-75
2022/01/11 00:20:56;;;;;;;15.75;7.00;;;;;;;;;;4953511;28;20027;-74
2022/01/11 00:25:47;;;;;;;15.30;7.22;;;;;;;;;;4952994;28;20117;-75
2022/01/11 00:28:15;;;;;;;12.45;7.15;;;;;;;;;;4953174;28;20106;-74
2022/01/11 00:30:42;;;;;;;14.27;7.22;;;;;;;;;;4953244;28;20023;-74
2022/01/11 00:33:13;;;;;;;12.25;6.15;;;;;;;;;;4953252;28;20027;-75
2022/01/11 00:35:42;;;;;;;14.95;6.95;;;;;;;;;;4952965;28;20024;-74
2022/01/11 00:38:09;;;;;;;16.83;8.43;;;;;;;;;;4953709;28;20454;-74
2022/01/11 00:40:34;;;;;;;19.27;8.07;;;;;;;;;;4954456;28;20211;-74
2022/01/11 00:43:00;;;;;;;22.85;9.70;;;;;;;;;;4953054;28;20034;-74
2022/01/11 00:45:27;;;;;;;21.70;8.95;;;;;;;;;;4953426;28;20062;-75
2022/01/11 00:47:54;;;;;;;21.05;9.85;;;;;;;;;;4952881;28;20031;-74
2022/01/11 00:50:19;;;;;;;21.85;9.35;;;;;;;;;;4952777;28;20051;-74
2022/01/11 00:52:44;;;;;;;22.55;10.02;;;;;;;;;;4953844;28;20034;-74
2022/01/11 00:55:10;;;;;;;19.15;9.18;;;;;;;;;;4962967;28;20031;-74
2022/01/11 00:57:36;;;;;;;19.02;9.40;;;;;;;;;;4965103;28;20416;-74
2022/01/11 01:00:04;;;;;;;17.90;8.65;;;;;;;;;;4971314;28;20038;-74
2022/01/11 01:02:29;;;;;;;21.00;9.00;;;;;;;;;;4971839;28;20465;-74
2022/01/11 01:04:54;;;;;;;18.08;7.93;;;;;;;;;;4971719;28;20097;-75
2022/01/11 01:07:20;;;;;;;17.77;7.57;;;;;;;;;;4971759;28;20027;-76
2022/01/11 01:10:01;;;;;;;17.08;8.02;;;;;;;;;;4971386;28;20400;-76
2022/01/11 01:12:26;;;;;;;19.25;8.40;;;;;;;;;;4971526;28;20445;-77
2022/01/11 01:14:52;;;;;;;23.13;8.85;;;;;;;;;;4970514;28;20117;-77
2022/01/11 01:17:17;;;;;;;24.77;10.15;;;;;;;;;;4971584;28;20038;-76
2022/01/11 01:19:42;;;;;;;22.20;7.75;;;;;;;;;;4971199;28;20035;-76
2022/01/11 01:22:08;;;;;;;21.38;8.52;;;;;;;;;;4971432;28;20092;-76
2022/01/11 01:24:33;;;;;;;22.33;8.10;;;;;;;;;;4971130;28;20027;-76
2022/01/11 01:26:59;;;;;;;19.75;7.90;;;;;;;;;;4971323;28;20392;-77
2022/01/11 01:29:25;;;;;;;15.00;7.43;;;;;;;;;;4971180;28;20101;-77
2022/01/11 01:31:50;;;;;;;20.58;8.63;;;;;;;;;;4959016;28;20114;-77
2022/01/11 01:34:16;;;;;;;20.27;8.15;;;;;;;;;;4951851;28;20038;-77
2022/01/11 01:36:41;;;;;;;18.25;8.02;;;;;;;;;;4951381;28;20425;-76
2022/01/11 01:39:07;;;;;;;16.63;7.88;;;;;;;;;;4951666;28;20031;-77
2022/01/11 01:41:32;;;;;;;15.88;7.75;;;;;;;;;;4951762;28;20030;-77
2022/01/11 01:44:03;;;;;;;14.73;7.13;;;;;;;;;;4951532;28;20035;-77
2022/01/11 01:46:29;;;;;;;14.20;7.07;;;;;;;;;;4951842;28;20015;-77
2022/01/11 01:48:58;;;;;;;13.80;6.78;;;;;;;;;;4958435;28;20485;-76
2022/01/11 01:51:23;;;;;;;17.95;7.47;;;;;;;;;;4951862;28;20397;-76
2022/01/11 01:53:50;;;;;;;13.95;6.60;;;;;;;;;;4951479;29;20034;-77
2022/01/11 01:56:20;;;;;;;15.63;7.68;;;;;;;;;;4951368;28;20523;-76
2022/01/11 01:58:46;;;;;;;18.98;7.53;;;;;;;;;;4951664;28;20404;-77
2022/01/11 02:01:13;;;;;;;17.35;8.13;;;;;;;;;;4951609;28;20105;-76
2022/01/11 02:03:40;;;;;;;13.73;7.40;;;;;;;;;;4951560;28;20366;-77
2022/01/11 02:06:12;;;;;;;15.93;7.68;;;;;;;;;;4963455;28;20031;-77
2022/01/11 02:08:38;;;;;;;18.02;7.82;;;;;;;;;;4977423;23;20027;-76
2022/01/11 02:11:04;;;;;;;16.23;8.20;;;;;;;;;;4988738;28;20038;-75
2022/01/11 02:13:29;;;;;;;16.85;7.85;;;;;;;;;;4990218;28;20110;-75
2022/01/11 02:15:55;;;;;;;16.13;7.93;;;;;;;;;;4989734;28;20494;-76
2022/01/11 02:18:24;;;;;;;15.23;7.68;;;;;;;;;;4990269;28;20487;-76
2022/01/11 02:20:50;;;;;;;16.90;8.00;;;;;;;;;;4969210;28;20034;-75
2022/01/11 02:23:17;;;;;;;24.10;9.23;;;;;;;;;;4970626;28;20033;-76
2022/01/11 02:25:44;;;;;;;22.90;8.15;;;;;;;;;;4970362;28;20081;-76
2022/01/11 02:28:13;;;;;;;16.85;8.13;;;;;;;;;;4970948;28;20069;-75
2022/01/11 02:30:38;;;;;;;16.70;7.68;;;;;;;;;;4972926;28;20042;-76
2022/01/11 02:33:07;;;;;;;19.10;8.48;;;;;;;;;;4987564;28;20038;-76
2022/01/11 02:35:33;;;;;;;15.40;6.85;;;;;;;;;;4950884;28;20031;-76
2022/01/11 02:37:58;;;;;;;18.05;7.68;;;;;;;;;;4951196;28;20031;-76
2022/01/11 02:40:24;;;;;;;17.48;7.78;;;;;;;;;;4951179;28;20027;-76
2022/01/11 02:42:49;;;;;;;16.83;7.35;;;;;;;;;;4951494;29;20035;-76
2022/01/11 02:45:19;;;;;;;16.92;7.88;;;;;;;;;;4950868;29;20606;-76
2022/01/11 02:47:46;;;;;;;14.43;6.45;;;;;;;;;;4951792;28;20031;-76
2022/01/11 02:50:13;;;;;;;13.82;6.15;;;;;;;;;;4955576;28;20381;-76
2022/01/11 02:52:39;;;;;;;14.82;5.60;;;;;;;;;;4965833;28;20605;-76
2022/01/11 02:55:09;;;;;;;16.13;6.65;;;;;;;;;;4954546;29;20420;-76
2022/01/11 02:57:35;;;;;;;13.77;6.78;;;;;;;;;;4955008;28;20481;-76
2022/01/11 03:00:02;;;;;;;13.13;6.53;;;;;;;;;;4954811;28;20046;-76
2022/01/11 03:02:28;;;;;;;12.95;6.65;;;;;;;;;;4954612;28;20031;-75
2022/01/11 03:04:53;;;;;;;13.15;6.90;;;;;;;;;;4954274;29;20026;-75
2022/01/11 03:07:22;;;;;;;16.00;6.78;;;;;;;;;;4961452;28;20025;-75
2022/01/11 03:10:02;;;;;;;15.05;7.32;;;;;;;;;;4973531;28;20054;-76
2022/01/11 03:12:28;;;;;;;13.52;6.45;;;;;;;;;;4973992;28;20553;-76
2022/01/11 03:14:54;;;;;;;13.38;7.13;;;;;;;;;;4973377;28;20449;-76
2022/01/11 03:17:20;;;;;;;16.60;6.75;;;;;;;;;;4961328;28;20263;-76
2022/01/11 03:19:46;;;;;;;17.88;7.85;;;;;;;;;;4973915;28;20034;-76
2022/01/11 03:22:12;;;;;;;21.63;8.30;;;;;;;;;;4974027;28;20031;-75
2022/01/11 03:24:38;;;;;;;15.02;7.63;;;;;;;;;;4967167;28;20098;-76
2022/01/11 03:27:06;;;;;;;10.45;5.97;;;;;;;;;;4954569;28;20059;-76
2022/01/11 03:29:32;;;;;;;10.38;5.43;;;;;;;;;;4954560;28;20461;-75
2022/01/11 03:31:57;;;;;;;14.00;6.57;;;;;;;;;;4980016;28;20037;-76
2022/01/11 03:34:23;;;;;;;12.15;5.97;;;;;;;;;;4992677;28;20026;-76
2022/01/11 03:36:48;;;;;;;14.32;6.97;;;;;;;;;;4992611;28;20467;-76
2022/01/11 03:39:13;;;;;;;15.20;7.25;;;;;;;;;;4992513;28;20090;-75
2022/01/11 03:41:39;;;;;;;17.08;8.13;;;;;;;;;;4972450;28;20034;-75
2022/01/11 03:44:04;;;;;;;15.90;8.57;;;;;;;;;;4953744;29;20026;-76
2022/01/11 03:46:30;;;;;;;18.98;8.35;;;;;;;;;;4953736;28;20023;-76
2022/01/11 03:48:55;;;;;;;17.40;7.78;;;;;;;;;;4954102;28;20019;-76
2022/01/11 03:51:20;;;;;;;14.77;7.45;;;;;;;;;;4953772;28;20031;-76
2022/01/11 03:53:55;;;;;;;17.35;7.90;;;;;;;;;;4954026;28;20039;-75
2022/01/11 03:56:23;;;;;;;20.60;7.35;;;;;;;;;;4953695;28;20023;-75
2022/01/11 03:58:52;;;;;;;18.25;7.65;;;;;;;;;;4967391;28;20297;-74
2022/01/11 04:01:18;;;;;;;13.80;6.45;;;;;;;;;;4972165;28;20043;-74
2022/01/11 04:03:45;;;;;;;14.60;7.00;;;;;;;;;;4973176;28;20109;-74
2022/01/11 04:06:10;;;;;;;16.98;7.10;;;;;;;;;;4972615;28;20060;-77
2022/01/11 04:08:36;;;;;;;14.77;6.82;;;;;;;;;;4973088;28;20061;-75
2022/01/11 04:11:02;;;;;;;17.10;7.45;;;;;;;;;;4972736;28;20066;-75
2022/01/11 04:13:27;;;;;;;18.13;7.47;;;;;;;;;;4972956;28;20403;-75
2022/01/11 04:15:52;;;;;;;17.48;6.90;;;;;;;;;;4972016;28;20046;-75
2022/01/11 04:18:18;;;;;;;13.13;6.00;;;;;;;;;;4973051;28;20041;-76
2022/01/11 04:20:43;;;;;;;14.30;5.80;;;;;;;;;;4972812;28;20023;-74
2022/01/11 04:23:12;;;;;;;14.80;7.22;;;;;;;;;;4973249;28;20034;-77
2022/01/11 04:25:38;;;;;;;14.57;6.53;;;;;;;;;;4972600;28;20026;-76
2022/01/11 04:28:04;;;;;;;13.00;6.03;;;;;;;;;;4972509;28;20034;-75
2022/01/11 04:30:29;;;;;;;14.65;6.22;;;;;;;;;;4972238;28;20035;-76
2022/01/11 04:32:54;;;;;;;13.98;6.85;;;;;;;;;;4971201;28;20108;-75
2022/01/11 04:35:20;;;;;;;13.32;6.82;;;;;;;;;;4972182;28;20113;-75
2022/01/11 04:37:45;;;;;;;16.23;7.13;;;;;;;;;;4972356;28;20507;-77
2022/01/11 04:40:12;;;;;;;14.63;6.15;;;;;;;;;;4972240;28;20038;-75
2022/01/11 04:42:38;;;;;;;14.80;6.38;;;;;;;;;;4972047;28;20031;-74
2022/01/11 04:45:03;;;;;;;14.95;6.82;;;;;;;;;;4971841;28;20029;-75
2022/01/11 04:47:29;;;;;;;14.73;6.30;;;;;;;;;;4972136;28;20134;-77
2022/01/11 04:49:54;;;;;;;17.73;7.03;;;;;;;;;;4970424;28;20492;-74
2022/01/11 04:52:19;;;;;;;12.00;6.18;;;;;;;;;;4972149;28;20428;-76
2022/01/11 04:54:44;;;;;;;15.23;7.22;;;;;;;;;;4971880;28;20105;-76
2022/01/11 04:57:10;;;;;;;14.98;6.57;;;;;;;;;;4971841;28;20050;-75
2022/01/11 04:59:35;;;;;;;14.73;6.32;;;;;;;;;;4971895;28;20467;-76
2022/01/11 05:02:01;;;;;;;13.68;6.60;;;;;;;;;;4970577;28;20037;-75
2022/01/11 05:04:26;;;;;;;27.95;10.75;;;;;;;;;;4971912;28;20502;-76
2022/01/11 05:06:51;;;;;;;13.32;5.97;;;;;;;;;;4970246;28;20113;-75
2022/01/11 05:09:17;;;;;;;14.95;6.43;;;;;;;;;;4971885;28;20555;-77
2022/01/11 05:11:42;;;;;;;19.23;6.65;;;;;;;;;;4969648;28;20061;-75
2022/01/11 05:14:07;;;;;;;15.07;6.05;;;;;;;;;;4971492;28;20039;-75
2022/01/11 05:16:32;;;;;;;15.23;6.00;;;;;;;;;;4970380;28;20034;-75
2022/01/11 05:18:58;;;;;;;14.02;6.45;;;;;;;;;;4971459;28;20081;-76
2022/01/11 05:21:23;;;;;;;17.77;7.15;;;;;;;;;;4971471;28;20077;-75
2022/01/11 05:23:48;;;;;;;12.38;5.70;;;;;;;;;;4970302;28;20556;-75
2022/01/11 05:26:14;;;;;;;16.05;6.60;;;;;;;;;;4971940;28;20097;-75
2022/01/11 05:28:39;;;;;;;16.55;7.70;;;;;;;;;;4971544;28;20034;-76
2022/01/11 05:31:04;;;;;;;13.90;6.47;;;;;;;;;;4969918;28;20134;-76
2022/01/11 05:33:31;;;;;;;15.75;6.60;;;;;;;;;;4971124;28;20026;-75
2022/01/11 05:35:56;;;;;;;14.40;6.65;;;;;;;;;;4956535;28;20031;-74
2022/01/11 05:38:21;;;;;;;15.68;6.35;;;;;;;;;;4951854;28;20028;-76
2022/01/11 05:40:47;;;;;;;12.63;5.95;;;;;;;;;;4951851;28;20047;-75
2022/01/11 05:43:14;;;;;;;13.98;6.07;;;;;;;;;;4950245;29;20143;-75
2022/01/11 05:45:40;;;;;;;13.48;5.65;;;;;;;;;;4966264;28;20497;-74
2022/01/11 05:48:05;;;;;;;15.35;5.63;;;;;;;;;;4951594;28;20038;-75
2022/01/11 05:50:31;;;;;;;16.10;7.15;;;;;;;;;;4966583;28;20034;-76
2022/01/11 05:52:57;;;;;;;16.63;6.85;;;;;;;;;;4970787;28;20030;-76
2022/01/11 05:55:22;;;;;;;15.80;6.43;;;;;;;;;;4970663;28;20027;-75
2022/01/11 05:57:47;;;;;;;20.15;7.60;;;;;;;;;;4970696;28;20477;-75
2022/01/11 06:00:16;;;;;;;16.73;7.13;;;;;;;;;;4970884;28;20358;-75
2022/01/11 06:02:46;;;;;;;13.27;6.70;;;;;;;;;;4970764;28;20054;-74
2022/01/11 06:05:12;;;;;;;15.13;6.63;;;;;;;;;;4970987;28;20038;-76
2022/01/11 06:07:39;;;;;;;16.90;7.25;;;;;;;;;;4969205;28;20062;-76
2022/01/11 06:10:05;;;;;;;15.05;6.70;;;;;;;;;;4971277;28;20034;-75
2022/01/11 06:12:31;;;;;;;19.20;6.32;;;;;;;;;;4970576;28;20030;-76
2022/01/11 06:14:56;;;;;;;21.92;7.50;;;;;;;;;;4970509;28;20033;-74
2022/01/11 06:17:22;;;;;;;16.17;6.40;;;;;;;;;;4970588;28;20035;-75
2022/01/11 06:19:47;;;;;;;16.92;7.05;;;;;;;;;;4970895;28;20034;-74
2022/01/11 06:22:12;;;;;;;12.85;6.15;;;;;;;;;;4970612;28;20062;-76
2022/01/11 06:24:38;;;;;;;12.93;6.72;;;;;;;;;;4967674;28;20034;-76
2022/01/11 06:27:03;;;;;;;15.23;6.55;;;;;;;;;;4972933;28;20105;-75
2022/01/11 06:29:28;;;;;;;17.88;7.85;;;;;;;;;;4960737;28;20085;-75
2022/01/11 06:31:54;;;;;;;12.38;6.47;;;;;;;;;;4965838;28;20034;-75
2022/01/11 06:34:19;;;;;;;16.10;6.63;;;;;;;;;;4954998;29;20031;-75
2022/01/11 06:36:44;;;;;;;16.55;7.25;;;;;;;;;;4955104;28;20067;-76
2022/01/11 06:39:10;;;;;;;14.60;6.85;;;;;;;;;;4967957;28;20113;-76
2022/01/11 06:41:35;;;;;;;15.20;6.28;;;;;;;;;;4974344;28;20030;-76
2022/01/11 06:44:01;;;;;;;17.15;7.38;;;;;;;;;;4974155;28;20026;-76
2022/01/11 06:46:26;;;;;;;18.05;6.45;;;;;;;;;;4974293;28;20022;-74
2022/01/11 06:48:51;;;;;;;13.25;6.30;;;;;;;;;;4972892;28;20416;-75
2022/01/11 06:51:18;;;;;;;17.13;6.82;;;;;;;;;;4974226;28;20110;-76
2022/01/11 06:53:44;;;;;;;13.52;7.03;;;;;;;;;;4972133;28;20061;-76
2022/01/11 06:56:09;;;;;;;15.38;6.68;;;;;;;;;;4972828;28;20062;-76
2022/01/11 06:58:34;;;;;;;19.10;8.43;;;;;;;;;;4971321;28;20147;-74
2022/01/11 07:01:00;;;;;;;16.25;8.30;;;;;;;;;;4971584;28;20069;-76
2022/01/11 07:03:25;;;;;;;12.63;6.65;;;;;;;;;;4969162;28;20121;-73
2022/01/11 07:05:51;;;;;;;15.50;7.15;;;;;;;;;;4969380;28;20114;-73
2022/01/11 07:08:16;;;;;;;17.05;6.95;;;;;;;;;;4966390;28;20040;-75
2022/01/11 07:10:42;;;;;;;14.45;6.47;;;;;;;;;;4968221;28;20085;-75
2022/01/11 07:13:07;;;;;;;11.63;5.50;;;;;;;;;;4970271;28;20038;-74
2022/01/11 07:15:32;;;;;;;14.80;6.28;;;;;;;;;;4969417;28;20227;-77
2022/01/11 07:17:58;;;;;;;15.05;5.97;;;;;;;;;;4968874;28;20481;-77
2022/01/11 07:20:23;;;;;;;13.23;5.75;;;;;;;;;;4963076;28;20037;-77
2022/01/11 07:22:49;;;;;;;14.57;5.97;;;;;;;;;;4972689;28;20042;-74
2022/01/11 07:25:14;;;;;;;12.75;5.72;;;;;;;;;;4973577;28;20038;-76
2022/01/11 07:27:40;;;;;;;15.18;6.32;;;;;;;;;;4972780;28;20151;-75
2022/01/11 07:30:07;;;;;;;16.90;6.85;;;;;;;;;;4968188;28;20105;-75
2022/01/11 07:32:33;;;;;;;15.65;6.68;;;;;;;;;;4967642;28;20287;-74
2022/01/11 07:34:58;;;;;;;16.70;6.28;;;;;;;;;;4959600;28;20027;-75
2022/01/11 07:37:24;;;;;;;13.77;6.63;;;;;;;;;;4966539;28;20035;-74
2022/01/11 07:39:49;;;;;;;14.85;7.38;;;;;;;;;;4978246;28;20031;-75
2022/01/11 07:42:15;;;;;;;13.55;6.00;;;;;;;;;;4967180;28;20034;-77
2022/01/11 07:44:40;;;;;;;12.85;5.43;;;;;;;;;;4976379;28;20097;-72
2022/01/11 07:47:06;;;;;;;12.55;5.88;;;;;;;;;;4963869;28;20038;-74
2022/01/11 07:49:31;;;;;;;14.68;6.10;;;;;;;;;;4969603;28;20109;-73
2022/01/11 07:51:56;;;;;;;16.02;6.68;;;;;;;;;;4970072;28;20124;-73
2022/01/11 07:54:22;;;;;;;14.98;6.80;;;;;;;;;;4968469;28;20031;-73
2022/01/11 07:56:47;;;;;;;12.32;5.97;;;;;;;;;;4969500;28;20453;-71
2022/01/11 07:59:13;;;;;;;12.68;7.10;;;;;;;;;;4961177;28;20536;-73
2022/01/11 08:01:38;;;;;;;13.27;6.57;;;;;;;;;;4972350;28;20026;-73
2022/01/11 08:04:05;;;;;;;13.98;6.55;;;;;;;;;;4972009;28;20547;-74
2022/01/11 08:06:32;;;;;;;16.83;7.95;;;;;;;;;;4970199;28;20023;-74
2022/01/11 08:08:58;;;;;;;14.98;7.22;;;;;;;;;;4968618;28;20105;-71
2022/01/11 08:11:23;;;;;;;14.88;7.78;;;;;;;;;;4969618;28;20118;-75
2022/01/11 08:13:49;;;;;;;20.52;10.10;;;;;;;;;;4968463;28;20113;-74
2022/01/11 08:16:14;;;;;;;17.23;8.32;;;;;;;;;;4971233;28;20042;-74
2022/01/11 08:18:39;;;;;;;13.93;7.05;;;;;;;;;;4968159;28;20038;-73
2022/01/11 08:21:06;;;;;;;12.93;6.40;;;;;;;;;;4966668;28;20241;-75
2022/01/11 08:23:33;;;;;;;14.40;6.68;;;;;;;;;;4968452;28;20477;-75
2022/01/11 08:25:58;;;;;;;14.93;6.82;;;;;;;;;;4968439;28;20484;-75
2022/01/11 08:28:25;;;;;;;12.65;6.15;;;;;;;;;;4956448;28;20055;-75
2022/01/11 08:30:51;;;;;;;10.43;5.80;;;;;;;;;;4966627;28;20034;-74
2022/01/11 08:33:16;;;;;;;14.18;5.95;;;;;;;;;;4968598;28;20440;-75
2022/01/11 08:35:42;;;;;;;13.90;6.10;;;;;;;;;;4982500;28;20096;-74
2022/01/11 08:38:07;;;;;;;12.80;5.97;;;;;;;;;;4983641;28;20033;-75
2022/01/11 08:40:33;;;;;;;15.55;5.88;;;;;;;;;;4968553;28;20077;-74
2022/01/11 08:42:58;;;;;;;15.95;6.65;;;;;;;;;;4968389;28;20054;-75
2022/01/11 08:45:23;;;;;;;14.35;6.20;;;;;;;;;;4967432;28;20074;-76
2022/01/11 08:47:48;;;;;;;14.85;6.07;;;;;;;;;;4968534;28;20069;-75
2022/01/11 08:50:14;;;;;;;12.40;5.28;;;;;;;;;;4967671;28;20053;-75
2022/01/11 08:52:42;;;;;;;13.73;5.60;;;;;;;;;;4964278;28;20023;-74
2022/01/11 08:55:11;;;;;;;12.85;6.00;;;;;;;;;;4948838;28;20313;-74
2022/01/11 08:57:36;;;;;;;17.83;7.43;;;;;;;;;;4983845;28;20026;-75
2022/01/11 09:00:06;;;;;;;26.00;12.75;;;;;;;;;;4967756;28;20042;-76
2022/01/11 09:02:35;;;;;;;18.88;8.75;;;;;;;;;;4955316;28;20074;-76
2022/01/11 09:05:00;;;;;;;11.30;6.45;;;;;;;;;;4948296;28;20081;-74
2022/01/11 09:07:26;;;;;;;10.13;5.30;;;;;;;;;;4976522;28;20031;-76
2022/01/11 09:09:51;;;;;;;11.05;5.82;;;;;;;;;;4979061;28;20495;-75
2022/01/11 09:12:19;;;;;;;10.15;5.38;;;;;;;;;;4974733;28;20023;-75
2022/01/11 09:14:46;;;;;;;8.73;4.15;;;;;;;;;;4967731;28;20034;-75
2022/01/11 09:17:12;;;;;;;10.15;5.22;;;;;;;;;;4968055;28;20034;-75
2022/01/11 09:19:37;;;;;;;14.38;7.03;;;;;;;;;;4963435;28;20031;-77
2022/01/11 09:22:04;;;;;;;12.25;5.53;;;;;;;;;;4966613;28;20034;-75
2022/01/11 09:24:30;;;;;;;11.52;6.82;;;;;;;;;;4966699;28;20473;-75
2022/01/11 09:26:58;;;;;;;9.57;5.38;;;;;;;;;;4967492;28;20033;-75
2022/01/11 09:29:24;;;;;;;10.27;5.22;;;;;;;;;;4967124;28;20026;-75
2022/01/11 09:31:50;;;;;;;7.68;4.68;;;;;;;;;;4966619;28;20038;-74
2022/01/11 09:34:15;;;;;;;10.43;5.07;;;;;;;;;;4965701;28;20027;-74
2022/01/11 09:36:41;;;;;;;12.88;5.10;;;;;;;;;;4960786;28;20030;-75
2022/01/11 09:39:07;;;;;;;11.80;5.68;;;;;;;;;;4965843;28;20030;-73
2022/01/11 09:41:34;;;;;;;13.65;5.97;;;;;;;;;;4957015;28;20503;-75
2022/01/11 09:43:59;;;;;;;11.35;5.57;;;;;;;;;;4958706;28;20030;-74
2022/01/11 09:46:25;;;;;;;12.65;5.22;;;;;;;;;;4960256;28;20038;-74
2022/01/11 09:48:50;;;;;;;11.38;5.65;;;;;;;;;;4958791;28;20122;-75
2022/01/11 09:51:16;;;;;;;15.50;6.95;;;;;;;;;;4960774;28;20019;-74
2022/01/11 09:53:41;;;;;;;20.17;9.07;;;;;;;;;;4967192;28;20026;-74
2022/01/11 09:56:08;;;;;;;16.20;7.55;;;;;;;;;;4967341;28;20894;-73
2022/01/11 09:58:35;;;;;;;14.30;6.60;;;;;;;;;;4966159;28;20027;-74
2022/01/11 10:01:02;;;;;;;14.07;5.95;;;;;;;;;;4966688;28;20053;-74
2022/01/11 10:03:27;;;;;;;14.23;5.93;;;;;;;;;;4967846;28;20105;-73
2022/01/11 10:05:53;;;;;;;11.75;5.60;;;;;;;;;;4965542;28;20113;-74
2022/01/11 10:08:28;;;;;;;12.43;6.50;;;;;;;;;;4966956;28;20038;-74
2022/01/11 10:10:57;;;;;;;15.05;6.53;;;;;;;;;;4966618;28;20457;-75
2022/01/11 10:13:38;;;;;;;11.13;5.97;;;;;;;;;;4967393;28;20035;-74
2022/01/11 10:16:24;;;;;;;14.40;7.05;;;;;;;;;;4980604;28;20045;-74
2022/01/11 10:18:51;;;;;;;13.98;7.07;;;;;;;;;;4984603;28;20451;-74
2022/01/11 10:21:31;;;;;;;14.95;7.53;;;;;;;;;;4972744;28;20086;-75
2022/01/11 10:23:57;;;;;;;17.27;8.18;;;;;;;;;;4966602;28;20393;-74
2022/01/11 10:26:42;;;;;;;14.48;7.53;;;;;;;;;;4966827;28;20030;-74
2022/01/11 10:29:25;;;;;;;16.15;6.97;;;;;;;;;;4967088;28;20039;-75
2022/01/11 10:31:52;;;;;;;20.80;8.82;;;;;;;;;;4966703;28;20042;-74
2022/01/11 10:34:25;;;;;;;14.93;6.80;;;;;;;;;;4966954;28;20468;-75
2022/01/11 10:36:51;;;;;;;16.48;7.32;;;;;;;;;;4967094;28;20019;-74
2022/01/11 10:39:40;;;;;;;14.32;6.25;;;;;;;;;;4966417;28;20057;-73
2022/01/11 10:42:21;;;;;;;13.70;6.95;;;;;;;;;;4967063;28;20031;-73
2022/01/11 10:44:52;;;;;;;14.27;7.53;;;;;;;;;;4967150;28;20400;-73
2022/01/11 10:47:20;;;;;;;16.88;7.07;;;;;;;;;;4968587;28;20034;-74
2022/01/11 10:49:45;;;;;;;14.65;6.45;;;;;;;;;;4964367;28;20293;-73
2022/01/11 10:52:31;;;;;;;13.45;6.07;;;;;;;;;;4966687;28;20027;-75
2022/01/11 10:54:58;;;;;;;10.23;6.35;;;;;;;;;;4965204;28;20377;-75
2022/01/11 10:57:30;;;;;;;14.00;6.68;;;;;;;;;;4966386;28;20526;-75
2022/01/11 11:00:04;;;;;;;14.20;6.90;;;;;;;;;;4966098;28;20371;-74
2022/01/11 11:02:30;;;;;;;13.52;7.25;;;;;;;;;;4959753;28;20023;-76
2022/01/11 11:04:58;;;;;;;12.10;6.28;;;;;;;;;;4966155;28;20050;-74
2022/01/11 11:07:26;;;;;;;12.27;5.93;;;;;;;;;;4966249;28;20465;-74
2022/01/11 11:09:52;;;;;;;17.92;6.93;;;;;;;;;;4968575;28;20260;-73
2022/01/11 11:12:20;;;;;;;12.48;5.60;;;;;;;;;;4968132;28;20117;-75
2022/01/11 11:14:56;;;;;;;14.73;6.82;;;;;;;;;;4972531;28;20057;-75
2022/01/11 11:17:32;;;;;;;13.18;6.72;;;;;;;;;;4973412;28;20062;-74
2022/01/11 11:20:00;;;;;;;11.95;6.45;;;;;;;;;;4973183;28;20077;-74
2022/01/11 11:22:27;;;;;;;11.50;5.90;;;;;;;;;;4973229;28;20053;-75
2022/01/11 11:24:53;;;;;;;11.55;5.50;;;;;;;;;;4973124;28;20501;-75
2022/01/11 11:27:20;;;;;;;10.77;5.78;;;;;;;;;;4972976;28;20035;-74
2022/01/11 11:29:47;;;;;;;10.60;5.28;;;;;;;;;;4970849;28;20483;-74
2022/01/11 11:32:14;;;;;;;12.32;5.65;;;;;;;;;;4973407;28;20169;-74
2022/01/11 11:34:40;;;;;;;10.77;5.60;;;;;;;;;;4973140;28;20023;-74
2022/01/11 11:37:07;;;;;;;12.38;6.32;;;;;;;;;;4973476;28;20515;-74
2022/01/11 11:39:33;;;;;;;10.95;6.18;;;;;;;;;;4973220;28;20019;-74
2022/01/11 11:42:00;;;;;;;11.10;5.85;;;;;;;;;;4972333;28;20037;-74
2022/01/11 11:44:27;;;;;;;12.38;6.07;;;;;;;;;;4970920;28;20398;-74
2022/01/11 11:47:02;;;;;;;15.10;6.35;;;;;;;;;;4968121;28;20114;-75
2022/01/11 11:49:55;;;;;;;11.32;5.50;;;;;;;;;;4969819;28;20031;-74
2022/01/11 11:52:34;;;;;;;12.82;5.50;;;;;;;;;;4971438;28;20033;-75
2022/01/11 11:55:22;;;;;;;13.00;7.28;;;;;;;;;;4970486;28;20030;-75
2022/01/11 11:57:54;;;;;;;14.82;6.97;;;;;;;;;;4970159;28;20054;-75
2022/01/11 12:00:24;;;;;;;13.50;6.38;;;;;;;;;;4969697;28;20030;-74
2022/01/11 12:02:51;;;;;;;16.00;7.60;;;;;;;;;;4969803;28;20034;-74
2022/01/11 12:05:42;;;;;;;12.68;6.40;;;;;;;;;;4972583;28;20023;-74
2022/01/11 12:08:36;;;;;;;13.82;6.68;;;;;;;;;;4973036;28;20358;-73
2022/01/11 12:11:10;;;;;;;15.57;6.43;;;;;;;;;;4972633;28;20027;-74
2022/01/11 12:13:40;;;;;;;16.33;8.45;;;;;;;;;;4966888;28;20055;-74
2022/01/11 12:16:34;;;;;;;12.35;6.22;;;;;;;;;;4954706;28;20024;-74
2022/01/11 12:19:06;;;;;;;15.48;7.88;;;;;;;;;;4972253;28;20385;-74
2022/01/11 12:22:03;;;;;;;21.33;10.02;;;;;;;;;;4972156;28;20033;-75
2022/01/11 12:24:44;;;;;;;15.15;6.70;;;;;;;;;;4961593;28;20028;-74
2022/01/11 12:27:11;;;;;;;13.27;7.25;;;;;;;;;;4972576;28;20042;-74
2022/01/11 12:30:01;;;;;;;12.57;6.60;;;;;;;;;;4972815;28;20451;-73
2022/01/11 12:32:30;;;;;;;13.18;6.50;;;;;;;;;;4968220;28;20064;-74
2022/01/11 12:35:09;;;;;;;17.10;7.90;;;;;;;;;;4971926;28;20306;-75
2022/01/11 12:37:41;;;;;;;13.38;7.05;;;;;;;;;;4971846;28;20023;-74
2022/01/11 12:40:20;;;;;;;18.55;8.63;;;;;;;;;;4971275;28;20117;-74
2022/01/11 12:43:01;;;;;;;19.85;9.98;;;;;;;;;;4977633;28;20037;-73
2022/01/11 12:45:45;;;;;;;13.93;8.50;;;;;;;;;;4962531;28;20023;-75
2022/01/11 12:48:11;;;;;;;12.82;7.60;;;;;;;;;;4972297;28;20049;-74
2022/01/11 12:50:54;;;;;;;13.70;7.20;;;;;;;;;;4991323;28;20034;-74
2022/01/11 12:53:20;;;;;;;12.98;7.15;;;;;;;;;;4975098;28;20054;-74
2022/01/11 12:55:45;;;;;;;12.57;6.75;;;;;;;;;;4971625;28;20069;-74
2022/01/11 12:58:11;;;;;;;10.38;6.53;;;;;;;;;;4971048;28;20037;-74
2022/01/11 13:00:37;;;;;;;10.32;5.70;;;;;;;;;;4971626;28;20085;-75
2022/01/11 13:03:05;;;;;;;13.95;7.10;;;;;;;;;;4955655;28;20031;-74
2022/01/11 13:05:31;;;;;;;13.75;7.43;;;;;;;;;;4958313;28;20089;-74
2022/01/11 13:07:56;;;;;;;11.00;7.00;;;;;;;;;;4960865;28;20039;-75
2022/01/11 13:10:27;;;;;;;10.13;5.95;;;;;;;;;;4966388;28;20533;-75
2022/01/11 13:13:15;;;;;;;8.70;5.22;;;;;;;;;;4970761;28;20336;-76
2022/01/11 13:15:48;;;;;;;11.93;6.03;;;;;;;;;;4971719;28;20388;-76
2022/01/11 13:18:19;;;;;;;8.18;4.93;;;;;;;;;;4971706;28;20030;-76
2022/01/11 13:20:48;;;;;;;10.05;5.82;;;;;;;;;;4972168;28;20027;-75
2022/01/11 13:23:28;;;;;;;10.88;5.60;;;;;;;;;;4972203;28;20556;-76
2022/01/11 13:26:05;;;;;;;8.32;4.65;;;;;;;;;;4969546;28;20118;-75
2022/01/11 13:28:46;;;;;;;8.25;5.28;;;;;;;;;;4952725;28;20323;-75
2022/01/11 13:31:14;;;;;;;11.82;6.15;;;;;;;;;;4967734;28;20053;-76
2022/01/11 13:33:46;;;;;;;8.77;5.05;;;;;;;;;;4970337;28;20038;-76
2022/01/11 13:36:13;;;;;;;9.95;5.57;;;;;;;;;;4970789;28;20511;-75
2022/01/11 13:38:45;;;;;;;9.20;5.50;;;;;;;;;;4970927;28;20030;-75
2022/01/11 13:41:12;;;;;;;9.02;5.05;;;;;;;;;;4971154;28;20335;-75
2022/01/11 13:43:41;;;;;;;7.82;4.43;;;;;;;;;;4972424;28;20486;-75
2022/01/11 13:46:16;;;;;;;9.45;5.07;;;;;;;;;;4971846;28;20465;-74
2022/01/11 13:48:44;;;;;;;10.88;4.65;;;;;;;;;;4971634;28;20417;-74
2022/01/11 13:51:10;;;;;;;9.95;4.93;;;;;;;;;;4971875;28;20038;-75
2022/01/11 13:53:37;;;;;;;8.80;4.95;;;;;;;;;;4971368;28;20034;-76
2022/01/11 13:56:15;;;;;;;10.85;5.40;;;;;;;;;;4971762;28;20037;-76
2022/01/11 13:58:51;;;;;;;8.95;5.05;;;;;;;;;;4971902;28;20485;-76
2022/01/11 14:01:18;;;;;;;8.60;4.53;;;;;;;;;;4971458;28;20080;-76
2022/01/11 14:03:44;;;;;;;7.82;5.00;;;;;;;;;;4961727;28;20305;-77
2022/01/11 14:06:14;;;;;;;9.25;5.30;;;;;;;;;;4970695;28;20023;-75
2022/01/11 14:08:48;;;;;;;9.10;5.32;;;;;;;;;;4970242;28;20394;-76
2022/01/11 14:11:23;;;;;;;13.23;6.72;;;;;;;;;;4970822;28;20034;-75
2022/01/11 14:13:49;;;;;;;19.80;9.75;;;;;;;;;;4971083;28;20038;-76
2022/01/11 14:16:15;;;;;;;22.00;11.43;;;;;;;;;;4971084;28;20162;-75
2022/01/11 14:18:42;;;;;;;18.08;9.95;;;;;;;;;;4983959;28;20114;-74
2022/01/11 14:21:10;;;;;;;14.48;8.48;;;;;;;;;;4968927;28;20485;-74
2022/01/11 14:23:36;;;;;;;10.63;5.70;;;;;;;;;;4951619;28;20038;-75
2022/01/11 14:26:04;;;;;;;8.48;5.47;;;;;;;;;;4959167;28;20031;-74
2022/01/11 14:28:33;;;;;;;9.05;4.97;;;;;;;;;;4970554;28;20043;-75
2022/01/11 14:31:19;;;;;;;9.68;5.30;;;;;;;;;;4970632;28;20030;-76
2022/01/11 14:33:44;;;;;;;9.23;4.75;;;;;;;;;;4969710;28;20042;-76
2022/01/11 14:36:19;;;;;;;9.05;5.75;;;;;;;;;;4968882;28;20382;-76
2022/01/11 14:39:15;;;;;;;17.20;10.48;;;;;;;;;;4968809;28;20022;-76
2022/01/11 14:41:46;;;;;;;11.43;5.88;;;;;;;;;;4950231;28;20516;-76